Terminal Aerodrome Forecast
Issued by NWS Topeka, KS

Home | Current Version | Previous Version | Text Only | Print | Product List | Glossary On
Versions: 1 2 3 4 5 6 7 8 9 10 11 12 13 14 15 16 17 18 19 20 21 22 23 24 25 26 27 28 29
266
FTUS43 KTOP 182320
TAFTOP
TAF
KTOP 182320Z 1900/1924 17015G25KT P6SM BKN025 WS013/20055KT
     FM190400 16016G20KT P6SM BKN008 WS013/21055KT
     FM190900 18015KT P6SM -DZ VCSH OVC008 WS013/21055KT
     FM191400 33008KT P6SM VCSH BKN015=

USA.gov is the U.S. government's official web portal to all federal, state and local government web resources and services.